CCA3 weather

Cable Head Airpark
Cable Head, Prince Edward Island, Canada

Public forecast

Using degrees Celsius for public forecast. Weather courtesy of forecast.io.

Closest aviation weather report (METAR) to Cable Head Airpark

Closest report is Charlottetown Airport, 23.7 nm (44.0 km) WSW. Retrieved 2020/06/04 18:00 UTC (55 minutes ago):

CYYG 041800Z 22011G17KT 15SM FEW050 21/07 A2971 RMK CU1 SLP064 DENSITY ALT 1200FT

Closest aviation forecast (TAF) to Cable Head Airpark

Closest forecast is Charlottetown Airport, 23.7 nm (44.0 km) WSW. Retrieved 2020/06/04 14:00 UTC (5 hours ago):

TAF CYYG 041340Z 0414/0501 22010KT P6SM FEW015 TEMPO 0414/0415 BKN015 BECMG 0414/0415 22010G20KT FM042100 22012G22KT P6SM SCT060 RMK NXT FCST BY 042000Z